Station History

Weather Underground - logo

Station Historical Data
Daily Summary for July 26, 2017 Units:  English    Metric   Both
« Previous Day
Next Day »
Daily Weekly Monthly Yearly Custom
  High: Low: Average:
Temperature: 97.5 °F 66.0 °F 82.9 °F
Dew Point: 66.9 °F 52.7 °F 61.3 °F
Humidity: 71 % 30 % 50 %
Wind Speed: 7.0 mph 0.0 mph 1.6 mph
Wind Gust: 7.0 mph - -
Wind:- - WSW
Pressure: 29.94 in 29.80 in -
Precipitation: 0.00 in    
Historical Graphs
 
 
Tabular Data for July 26, 2017
Time Temperature Dew Point Pressure Wind Wind Speed Wind Gust Humidity Rainfall Rate (Hourly)
00:02 76.9 °F 52.7 °F 29.87 in Calm     43 % 0.00 in
00:07 76.6 °F 53.7 °F 29.87 in Calm     45 % 0.00 in
00:13 76.2 °F 54.5 °F 29.87 in Calm     47 % 0.00 in
00:18 75.9 °F 53.6 °F 29.87 in Calm     46 % 0.00 in
00:23 75.9 °F 54.8 °F 29.87 in Calm     48 % 0.00 in
00:28 75.7 °F 57.4 °F 29.87 in Calm     53 % 0.00 in
00:33 75.3 °F 56.5 °F 29.87 in Calm     52 % 0.00 in
00:38 74.8 °F 55.5 °F 29.87 in Calm     51 % 0.00 in
00:43 74.4 °F 55.6 °F 29.87 in Calm     52 % 0.00 in
00:48 74.0 °F 56.3 °F 29.87 in Calm     54 % 0.00 in
00:53 73.7 °F 57.0 °F 29.87 in Calm     56 % 0.00 in
00:58 73.3 °F 56.7 °F 29.87 in Calm     56 % 0.00 in
01:03 73.1 °F 56.0 °F 29.87 in Calm     55 % 0.00 in
01:08 72.9 °F 55.3 °F 29.87 in Calm     54 % 0.00 in
01:13 72.8 °F 56.2 °F 29.87 in Calm     56 % 0.00 in
01:18 72.6 °F 56.0 °F 29.88 in Calm     56 % 0.00 in
01:23 72.6 °F 56.5 °F 29.88 in Calm     57 % 0.00 in
01:28 72.5 °F 55.9 °F 29.88 in Calm     56 % 0.00 in
01:33 72.3 °F 56.7 °F 29.88 in SE 1.2 mph   58 % 0.00 in
01:38 72.0 °F 57.4 °F 29.88 in Calm     60 % 0.00 in
01:43 71.6 °F 57.9 °F 29.88 in Calm     62 % 0.00 in
01:48 71.2 °F 58.4 °F 29.88 in Calm     64 % 0.00 in
01:53 70.9 °F 58.5 °F 29.88 in Calm     65 % 0.00 in
01:58 70.7 °F 58.4 °F 29.88 in Calm     65 % 0.00 in
02:03 70.5 °F 58.6 °F 29.88 in Calm     66 % 0.00 in
02:08 70.5 °F 58.2 °F 29.88 in Calm     65 % 0.00 in
02:13 70.5 °F 58.6 °F 29.88 in Calm     66 % 0.00 in
02:18 70.6 °F 58.7 °F 29.88 in Calm     66 % 0.00 in
02:23 70.4 °F 58.5 °F 29.88 in Calm     66 % 0.00 in
02:28 70.2 °F 57.4 °F 29.88 in SE 1.2 mph   64 % 0.00 in
02:33 70.0 °F 56.8 °F 29.88 in Calm     63 % 0.00 in
02:38 70.0 °F 56.4 °F 29.88 in Calm     62 % 0.00 in
02:39 70.0 °F 56.4 °F 29.88 in Calm     62 % 0.00 in
02:44 70.0 °F 56.4 °F 29.88 in Calm     62 % 0.00 in
02:49 69.9 °F 56.3 °F 29.88 in Calm     62 % 0.00 in
02:54 69.8 °F 57.5 °F 29.89 in Calm     65 % 0.00 in
02:59 69.8 °F 57.5 °F 29.88 in Calm     65 % 0.00 in
03:04 69.8 °F 56.6 °F 29.88 in Calm     63 % 0.00 in
03:09 69.7 °F 57.4 °F 29.88 in Calm     65 % 0.00 in
03:14 69.7 °F 58.7 °F 29.88 in Calm     68 % 0.00 in
03:16 69.7 °F 58.7 °F 29.89 in Calm     68 % 0.00 in
03:21 69.7 °F 57.8 °F 29.89 in Calm     66 % 0.00 in
03:26 69.7 °F 57.4 °F 29.89 in Calm     65 % 0.00 in
03:31 69.7 °F 57.0 °F 29.89 in Calm     64 % 0.00 in
03:36 69.7 °F 57.4 °F 29.89 in Calm     65 % 0.00 in
03:41 69.6 °F 57.7 °F 29.89 in Calm     66 % 0.00 in
03:46 69.6 °F 58.2 °F 29.89 in Calm     67 % 0.00 in
03:51 69.4 °F 58.8 °F 29.89 in Calm     69 % 0.00 in
03:56 69.2 °F 58.6 °F 29.89 in Calm     69 % 0.00 in
04:01 69.2 °F 58.6 °F 29.89 in Calm     69 % 0.00 in
04:06 69.2 °F 58.6 °F 29.89 in Calm     69 % 0.00 in
04:11 69.1 °F 58.5 °F 29.89 in Calm     69 % 0.00 in
04:16 69.0 °F 58.8 °F 29.89 in Calm     70 % 0.00 in
04:21 68.9 °F 56.6 °F 29.89 in Calm     65 % 0.00 in
04:26 69.0 °F 58.4 °F 29.90 in Calm     69 % 0.00 in
04:31 68.9 °F 56.6 °F 29.90 in Calm     65 % 0.00 in
04:36 68.8 °F 57.4 °F 29.90 in Calm     67 % 0.00 in
04:41 68.6 °F 56.8 °F 29.90 in Calm     66 % 0.00 in
04:46 68.5 °F 57.9 °F 29.90 in Calm     69 % 0.00 in
04:51 68.2 °F 55.1 °F 29.90 in Calm     63 % 0.00 in
04:56 68.4 °F 56.2 °F 29.90 in Calm     65 % 0.00 in
05:01 68.4 °F 55.3 °F 29.91 in Calm     63 % 0.00 in
05:06 68.3 °F 55.6 °F 29.91 in Calm     64 % 0.00 in
05:11 68.0 °F 54.5 °F 29.91 in Calm     62 % 0.00 in
05:16 68.0 °F 55.4 °F 29.91 in Calm     64 % 0.00 in
05:21 67.9 °F 55.3 °F 29.91 in Calm     64 % 0.00 in
05:26 67.7 °F 55.5 °F 29.91 in Calm     65 % 0.00 in
05:27 67.7 °F 55.5 °F 29.91 in Calm     65 % 0.00 in
05:32 67.5 °F 55.3 °F 29.91 in Calm     65 % 0.00 in
05:37 67.5 °F 55.7 °F 29.91 in Calm     66 % 0.00 in
05:42 67.2 °F 55.9 °F 29.91 in Calm     67 % 0.00 in
05:47 67.0 °F 55.3 °F 29.91 in Calm     66 % 0.00 in
05:52 66.9 °F 56.0 °F 29.91 in Calm     68 % 0.00 in
05:57 66.6 °F 55.7 °F 29.91 in Calm     68 % 0.00 in
06:02 66.4 °F 55.9 °F 29.91 in Calm     69 % 0.00 in
06:07 66.2 °F 56.1 °F 29.91 in Calm     70 % 0.00 in
06:12 66.0 °F 56.3 °F 29.92 in Calm     71 % 0.00 in
06:17 66.0 °F 56.3 °F 29.92 in Calm     71 % 0.00 in
06:22 66.0 °F 56.3 °F 29.92 in SE 1.2 mph   71 % 0.00 in
06:27 66.2 °F 56.1 °F 29.92 in Calm     70 % 0.00 in
06:32 66.4 °F 56.3 °F 29.92 in SE 1.2 mph   70 % 0.00 in
06:37 66.6 °F 56.5 °F 29.92 in SE 1.2 mph 1.2 mph 70 % 0.00 in
06:42 66.7 °F 56.6 °F 29.92 in Calm     70 % 0.00 in
06:47 66.9 °F 56.4 °F 29.92 in SE 1.2 mph   69 % 0.00 in
06:52 67.1 °F 56.6 °F 29.92 in Calm     69 % 0.00 in
06:57 67.4 °F 56.9 °F 29.92 in Calm   0.1 mph 69 % 0.00 in
07:02 67.9 °F 58.1 °F 29.92 in SSE 1.2 mph 1.2 mph 71 % 0.00 in
07:07 68.6 °F 57.6 °F 29.92 in Calm     68 % 0.00 in
07:13 69.8 °F 58.3 °F 29.93 in East 1.2 mph 1.2 mph 67 % 0.00 in
07:18 70.9 °F 58.5 °F 29.93 in Calm   0.1 mph 65 % 0.00 in
07:23 71.8 °F 59.0 °F 29.93 in SE 1.2 mph   64 % 0.00 in
07:28 72.4 °F 59.1 °F 29.93 in SSE 1.2 mph 1.2 mph 63 % 0.00 in
07:33 72.8 °F 59.5 °F 29.93 in ESE 2.3 mph 2.3 mph 63 % 0.00 in
07:38 73.1 °F 59.3 °F 29.93 in SSE 2.3 mph 2.3 mph 62 % 0.00 in
07:43 73.3 °F 59.5 °F 29.93 in ESE 3.5 mph 3.5 mph 62 % 0.00 in
07:48 73.8 °F 60.0 °F 29.93 in SSE 3.5 mph 3.5 mph 62 % 0.00 in
07:53 74.3 °F 60.0 °F 29.94 in SSW 2.3 mph 2.3 mph 61 % 0.00 in
07:58 75.0 °F 60.2 °F 29.94 in SSE 1.2 mph 1.2 mph 60 % 0.00 in
08:03 75.5 °F 60.2 °F 29.94 in SSE 3.5 mph 3.5 mph 59 % 0.00 in
08:08 76.1 °F 61.2 °F 29.94 in SE 1.2 mph 1.2 mph 60 % 0.00 in
08:13 76.8 °F 61.4 °F 29.94 in SE 1.2 mph   59 % 0.00 in
08:18 77.4 °F 61.5 °F 29.94 in South 2.3 mph 2.3 mph 58 % 0.00 in
08:23 77.6 °F 61.7 °F 29.93 in NE 1.2 mph   58 % 0.00 in
08:28 78.0 °F 62.0 °F 29.93 in South 1.2 mph 1.2 mph 58 % 0.00 in
08:33 78.5 °F 61.5 °F 29.94 in SE 2.3 mph 2.3 mph 56 % 0.00 in
08:38 78.3 °F 60.8 °F 29.94 in East 3.5 mph 3.5 mph 55 % 0.00 in
08:43 78.7 °F 61.7 °F 29.93 in East 3.5 mph 3.5 mph 56 % 0.00 in
08:48 79.1 °F 61.0 °F 29.93 in East 2.0 mph 2.0 mph 54 % 0.00 in
08:53 79.6 °F 61.5 °F 29.93 in SE 1.2 mph   54 % 0.00 in
08:58 80.2 °F 61.5 °F 29.93 in SE 2.3 mph 2.3 mph 53 % 0.00 in
08:59 80.3 °F 61.1 °F 29.93 in East 3.5 mph 3.5 mph 52 % 0.00 in
09:04 80.5 °F 61.3 °F 29.93 in ESE 3.5 mph 3.5 mph 52 % 0.00 in
09:09 80.8 °F 62.6 °F 29.93 in SSE 1.2 mph 1.2 mph 54 % 0.00 in
09:14 81.5 °F 62.7 °F 29.93 in SSE 2.3 mph 2.3 mph 53 % 0.00 in
09:19 82.4 °F 61.9 °F 29.93 in South 2.3 mph 2.3 mph 50 % 0.00 in
09:24 82.9 °F 62.4 °F 29.93 in NNE 2.3 mph 2.3 mph 50 % 0.00 in
09:29 83.1 °F 63.7 °F 29.93 in SSE 3.5 mph 3.5 mph 52 % 0.00 in
09:34 83.2 °F 63.7 °F 29.93 in Calm     52 % 0.00 in
09:39 83.8 °F 62.6 °F 29.93 in NW 1.2 mph 1.2 mph 49 % 0.00 in
09:44 84.1 °F 63.5 °F 29.93 in SSE 1.2 mph 1.2 mph 50 % 0.00 in
09:49 84.5 °F 63.8 °F 29.93 in NNW 1.2 mph 1.2 mph 50 % 0.00 in
09:59 84.8 °F 62.9 °F 29.93 in East 3.5 mph 3.5 mph 48 % 0.00 in
10:05 85.3 °F 63.4 °F 29.93 in NNE 2.3 mph 2.3 mph 48 % 0.00 in
10:10 85.7 °F 63.8 °F 29.93 in SE 3.5 mph 3.5 mph 48 % 0.00 in
10:15 85.4 °F 63.5 °F 29.93 in ESE 2.3 mph 2.3 mph 48 % 0.00 in
10:20 85.2 °F 62.7 °F 29.93 in WNW 2.3 mph 2.3 mph 47 % 0.00 in
10:25 85.5 °F 63.0 °F 29.93 in ESE 1.2 mph   47 % 0.00 in
10:30 85.9 °F 62.1 °F 29.93 in NW 1.2 mph 1.2 mph 45 % 0.00 in
10:35 86.4 °F 62.5 °F 29.93 in NNW 2.3 mph 2.3 mph 45 % 0.00 in
10:40 86.7 °F 63.4 °F 29.93 in NNE 2.3 mph 2.3 mph 46 % 0.00 in
10:45 86.6 °F 64.0 °F 29.93 in NW 2.3 mph 2.3 mph 47 % 0.00 in
10:50 86.8 °F 64.8 °F 29.92 in North 1.2 mph   48 % 0.00 in
10:55 86.6 °F 63.4 °F 29.92 in NE 2.3 mph 2.3 mph 46 % 0.00 in
11:00 86.7 °F 62.8 °F 29.92 in NW 1.2 mph 1.2 mph 45 % 0.00 in
11:05 87.2 °F 63.3 °F 29.92 in SSE 3.5 mph 3.5 mph 45 % 0.00 in
11:10 87.9 °F 64.5 °F 29.92 in SSE 1.2 mph 1.2 mph 46 % 0.00 in
11:15 88.3 °F 64.9 °F 29.92 in NW 2.3 mph 2.3 mph 46 % 0.00 in
11:20 88.4 °F 63.7 °F 29.92 in North 2.3 mph 2.3 mph 44 % 0.00 in
11:25 88.6 °F 63.9 °F 29.91 in WSW 2.3 mph 2.3 mph 44 % 0.00 in
11:30 88.9 °F 63.5 °F 29.91 in NW 2.0 mph 2.0 mph 43 % 0.00 in
11:36 89.5 °F 63.4 °F 29.91 in WNW 2.3 mph 2.3 mph 42 % 0.00 in
11:41 89.5 °F 62.7 °F 29.91 in NW 1.2 mph 1.2 mph 41 % 0.00 in
11:46 90.1 °F 65.9 °F 29.91 in SE 1.2 mph 1.2 mph 45 % 0.00 in
11:51 90.9 °F 63.2 °F 29.91 in WNW 2.3 mph 2.3 mph 40 % 0.00 in
11:56 90.2 °F 62.6 °F 29.91 in NNW 3.5 mph 3.5 mph 40 % 0.00 in
12:01 90.5 °F 64.3 °F 29.91 in Calm     42 % 0.00 in
12:06 91.2 °F 63.5 °F 29.91 in WNW 2.3 mph 2.3 mph 40 % 0.00 in
12:11 91.6 °F 63.1 °F 29.91 in NW 2.3 mph 2.3 mph 39 % 0.00 in
12:16 92.3 °F 65.2 °F 29.90 in North 2.3 mph 2.3 mph 41 % 0.00 in
12:21 92.4 °F 62.4 °F 29.90 in SE 1.2 mph 1.2 mph 37 % 0.00 in
12:26 92.3 °F 63.8 °F 29.90 in NNW 3.5 mph 3.5 mph 39 % 0.00 in
12:31 93.1 °F 64.5 °F 29.90 in NW 2.3 mph 2.3 mph 39 % 0.00 in
12:36 93.4 °F 63.2 °F 29.90 in North 2.3 mph 2.3 mph 37 % 0.00 in
12:41 93.8 °F 61.2 °F 29.90 in NW 3.5 mph 3.5 mph 34 % 0.00 in
12:46 93.4 °F 60.8 °F 29.90 in WNW 3.5 mph 3.5 mph 34 % 0.00 in
12:51 93.2 °F 61.5 °F 29.90 in West 1.2 mph 1.2 mph 35 % 0.00 in
12:56 93.3 °F 61.6 °F 29.89 in NW 3.5 mph 3.5 mph 35 % 0.00 in
13:01 93.7 °F 61.9 °F 29.89 in NW 3.5 mph 3.5 mph 35 % 0.00 in
13:06 94.2 °F 63.2 °F 29.89 in WNW 2.3 mph 2.3 mph 36 % 0.00 in
13:11 94.3 °F 62.4 °F 29.88 in NW 4.0 mph 4.0 mph 35 % 0.00 in
13:16 94.2 °F 63.2 °F 29.89 in NNW 3.5 mph 3.5 mph 36 % 0.00 in
13:21 93.9 °F 62.9 °F 29.88 in WNW 3.5 mph 3.5 mph 36 % 0.00 in
13:26 94.2 °F 62.4 °F 29.88 in West 3.5 mph 3.5 mph 35 % 0.00 in
13:31 94.4 °F 61.7 °F 29.88 in WNW 4.6 mph 4.6 mph 34 % 0.00 in
13:36 94.1 °F 62.3 °F 29.88 in WSW 4.6 mph 4.6 mph 35 % 0.00 in
13:41 94.0 °F 62.2 °F 29.88 in WNW 3.0 mph 3.0 mph 35 % 0.00 in
13:46 94.3 °F 61.6 °F 29.87 in NW 2.3 mph 2.3 mph 34 % 0.00 in
13:51 94.3 °F 62.4 °F 29.87 in NW 2.3 mph 2.3 mph 35 % 0.00 in
13:56 94.0 °F 60.5 °F 29.87 in NNW 3.5 mph 3.5 mph 33 % 0.00 in
14:01 94.1 °F 62.3 °F 29.87 in NW 3.5 mph 3.5 mph 35 % 0.00 in
14:06 94.6 °F 62.7 °F 29.87 in NW 3.0 mph 3.0 mph 35 % 0.00 in
14:11 94.7 °F 61.1 °F 29.87 in NNW 2.3 mph 2.3 mph 33 % 0.00 in
14:16 94.8 °F 62.9 °F 29.87 in NW 3.5 mph 3.5 mph 35 % 0.00 in
14:21 95.0 °F 60.5 °F 29.87 in NW 4.6 mph 4.6 mph 32 % 0.00 in
14:26 95.1 °F 61.5 °F 29.86 in WNW 4.0 mph 4.0 mph 33 % 0.00 in
14:32 95.2 °F 61.6 °F 29.86 in NW 3.5 mph 3.5 mph 33 % 0.00 in
14:37 95.5 °F 61.0 °F 29.86 in NW 3.5 mph 3.5 mph 32 % 0.00 in
14:42 95.5 °F 59.1 °F 29.86 in NNE 4.0 mph 4.0 mph 30 % 0.00 in
14:47 95.5 °F 60.1 °F 29.85 in WNW 2.3 mph 2.3 mph 31 % 0.00 in
14:52 95.5 °F 60.1 °F 29.85 in WNW 3.5 mph 3.5 mph 31 % 0.00 in
14:57 95.4 °F 59.1 °F 29.85 in NW 3.5 mph 3.5 mph 30 % 0.00 in
15:02 95.8 °F 59.4 °F 29.85 in West 1.2 mph 1.2 mph 30 % 0.00 in
15:07 96.1 °F 62.3 °F 29.85 in WNW 3.0 mph 3.0 mph 33 % 0.00 in
15:12 96.2 °F 60.7 °F 29.85 in NW 5.8 mph 5.8 mph 31 % 0.00 in
15:17 95.9 °F 60.4 °F 29.85 in NW 3.5 mph 3.5 mph 31 % 0.00 in
15:22 96.1 °F 60.6 °F 29.85 in NW 3.0 mph 3.0 mph 31 % 0.00 in
15:27 96.3 °F 59.8 °F 29.84 in NW 2.3 mph 2.3 mph 30 % 0.00 in
15:32 96.8 °F 61.2 °F 29.84 in NNE 2.3 mph 2.3 mph 31 % 0.00 in
15:37 97.0 °F 62.3 °F 29.84 in NW 3.5 mph 3.5 mph 32 % 0.00 in
15:42 96.9 °F 62.2 °F 29.84 in NW 1.2 mph 1.2 mph 32 % 0.00 in
15:47 96.8 °F 62.1 °F 29.83 in NW 3.5 mph 3.5 mph 32 % 0.00 in
15:52 96.4 °F 62.6 °F 29.83 in WSW 3.5 mph 3.5 mph 33 % 0.00 in
15:57 96.4 °F 62.6 °F 29.83 in NW 5.8 mph 5.8 mph 33 % 0.00 in
16:02 96.5 °F 63.5 °F 29.83 in North 4.6 mph 4.6 mph 34 % 0.00 in
16:07 97.0 °F 63.1 °F 29.83 in WNW 2.0 mph 2.0 mph 33 % 0.00 in
16:12 97.0 °F 64.8 °F 29.83 in NW 2.3 mph 2.3 mph 35 % 0.00 in
16:17 96.7 °F 64.5 °F 29.83 in NNW 4.0 mph 4.0 mph 35 % 0.00 in
16:22 96.7 °F 62.9 °F 29.82 in West 3.5 mph 3.5 mph 33 % 0.00 in
16:27 96.7 °F 62.9 °F 29.82 in NW 6.0 mph 6.0 mph 33 % 0.00 in
16:32 96.8 °F 63.0 °F 29.82 in NW 3.5 mph 3.5 mph 33 % 0.00 in
16:37 96.8 °F 63.8 °F 29.82 in WNW 5.8 mph 5.8 mph 34 % 0.00 in
16:42 96.7 °F 62.9 °F 29.82 in North 5.8 mph 5.8 mph 33 % 0.00 in
16:47 96.9 °F 63.0 °F 29.82 in NW 3.5 mph 3.5 mph 33 % 0.00 in
16:52 97.1 °F 62.3 °F 29.82 in NW 4.6 mph 4.6 mph 32 % 0.00 in
16:58 97.5 °F 62.7 °F 29.82 in NNW 6.9 mph 6.9 mph 32 % 0.00 in
17:03 97.1 °F 62.3 °F 29.82 in NW 3.5 mph 3.5 mph 32 % 0.00 in
17:08 97.1 °F 63.2 °F 29.82 in WNW 5.8 mph 5.8 mph 33 % 0.00 in
17:13 97.3 °F 64.2 °F 29.81 in WNW 4.6 mph 4.6 mph 34 % 0.00 in
17:18 97.4 °F 62.6 °F 29.81 in NW 7.0 mph 7.0 mph 32 % 0.00 in
17:23 97.3 °F 63.4 °F 29.81 in WNW 2.3 mph 2.3 mph 33 % 0.00 in
17:28 97.5 °F 61.8 °F 29.81 in WNW 4.6 mph 4.6 mph 31 % 0.00 in
17:33 97.2 °F 62.4 °F 29.81 in West 4.0 mph 4.0 mph 32 % 0.00 in
17:38 97.3 °F 63.4 °F 29.81 in NNW 3.5 mph 3.5 mph 33 % 0.00 in
17:43 97.3 °F 63.4 °F 29.81 in WNW 3.5 mph 3.5 mph 33 % 0.00 in
17:48 97.3 °F 63.4 °F 29.81 in NW 4.6 mph 4.6 mph 33 % 0.00 in
17:53 97.5 °F 63.6 °F 29.81 in NW 3.5 mph 3.5 mph 33 % 0.00 in
17:58 97.3 °F 62.5 °F 29.81 in NW 5.8 mph 5.8 mph 32 % 0.00 in
18:03 97.1 °F 64.1 °F 29.81 in NW 3.5 mph 3.5 mph 34 % 0.00 in
18:08 96.8 °F 63.8 °F 29.81 in WNW 3.5 mph 3.5 mph 34 % 0.00 in
18:13 96.8 °F 63.8 °F 29.81 in ENE 4.6 mph 4.6 mph 34 % 0.00 in
18:18 96.6 °F 64.5 °F 29.81 in NW 5.8 mph 5.8 mph 35 % 0.00 in
18:23 96.4 °F 63.5 °F 29.81 in NW 3.5 mph 3.5 mph 34 % 0.00 in
18:28 96.4 °F 64.3 °F 29.81 in NNW 4.0 mph 4.0 mph 35 % 0.00 in
18:33 96.2 °F 64.1 °F 29.80 in NW 3.5 mph 3.5 mph 35 % 0.00 in
18:38 96.1 °F 64.8 °F 29.81 in NW 3.5 mph 3.5 mph 36 % 0.00 in
18:43 96.0 °F 64.7 °F 29.81 in WNW 2.3 mph 2.3 mph 36 % 0.00 in
18:49 95.8 °F 63.8 °F 29.81 in NNW 5.8 mph 5.8 mph 35 % 0.00 in
18:54 95.5 °F 64.3 °F 29.81 in NW 2.3 mph 2.3 mph 36 % 0.00 in
18:59 95.1 °F 63.9 °F 29.81 in NW 2.3 mph 2.3 mph 36 % 0.00 in
19:04 94.7 °F 63.6 °F 29.81 in NW 3.5 mph 3.5 mph 36 % 0.00 in
19:09 94.1 °F 64.6 °F 29.81 in WNW 3.5 mph 3.5 mph 38 % 0.00 in
19:14 93.7 °F 64.3 °F 29.81 in NW 2.3 mph 2.3 mph 38 % 0.00 in
19:19 93.4 °F 63.2 °F 29.81 in NW 3.5 mph 3.5 mph 37 % 0.00 in
19:24 93.2 °F 63.8 °F 29.81 in NW 2.3 mph 2.3 mph 38 % 0.00 in
19:29 92.9 °F 63.6 °F 29.81 in NNW 2.0 mph 2.0 mph 38 % 0.00 in
19:34 92.6 °F 64.0 °F 29.81 in NW 2.3 mph 2.3 mph 39 % 0.00 in
19:36 92.5 °F 63.9 °F 29.81 in WNW 2.3 mph 2.3 mph 39 % 0.00 in
19:41 92.0 °F 64.2 °F 29.81 in NW 2.0 mph 2.0 mph 40 % 0.00 in
19:46 91.6 °F 64.6 °F 29.81 in NW 1.2 mph 1.2 mph 41 % 0.00 in
19:51 91.2 °F 64.2 °F 29.81 in NW 1.2 mph 1.2 mph 41 % 0.00 in
19:56 90.8 °F 63.9 °F 29.81 in NW 1.2 mph 1.2 mph 41 % 0.00 in
20:01 90.4 °F 64.2 °F 29.81 in NW 2.3 mph 2.3 mph 42 % 0.00 in
20:06 90.0 °F 63.8 °F 29.81 in NW 1.2 mph 1.2 mph 42 % 0.00 in
20:11 89.7 °F 64.2 °F 29.81 in NW 1.2 mph 1.2 mph 43 % 0.00 in
20:16 89.4 °F 64.0 °F 29.82 in NW 1.2 mph 1.2 mph 43 % 0.00 in
20:21 89.2 °F 63.8 °F 29.82 in NW 2.3 mph 2.3 mph 43 % 0.00 in
20:26 89.0 °F 63.6 °F 29.82 in NW 1.2 mph 1.2 mph 43 % 0.00 in
20:31 88.8 °F 64.1 °F 29.82 in NW 2.0 mph 2.0 mph 44 % 0.00 in
20:36 88.9 °F 64.2 °F 29.82 in NW 1.2 mph 1.2 mph 44 % 0.00 in
20:41 88.8 °F 64.1 °F 29.82 in NW 1.2 mph 1.2 mph 44 % 0.00 in
20:46 88.5 °F 63.8 °F 29.82 in Calm     44 % 0.00 in
20:51 88.2 °F 64.2 °F 29.82 in NW 1.2 mph 1.2 mph 45 % 0.00 in
20:56 87.6 °F 65.5 °F 29.82 in Calm     48 % 0.00 in
21:01 87.0 °F 64.9 °F 29.83 in Calm     48 % 0.00 in
21:07 86.8 °F 65.3 °F 29.82 in Calm     49 % 0.00 in
21:12 86.5 °F 64.5 °F 29.83 in Calm     48 % 0.00 in
21:17 86.3 °F 64.9 °F 29.83 in Calm     49 % 0.00 in
21:22 85.9 °F 65.7 °F 29.83 in Calm     51 % 0.00 in
21:27 85.3 °F 65.1 °F 29.83 in Calm     51 % 0.00 in
21:32 84.9 °F 65.3 °F 29.84 in Calm     52 % 0.00 in
21:37 84.7 °F 65.1 °F 29.83 in Calm     52 % 0.00 in
21:42 84.5 °F 64.9 °F 29.83 in Calm     52 % 0.00 in
21:47 84.8 °F 66.3 °F 29.83 in Calm     54 % 0.00 in
21:52 84.6 °F 65.6 °F 29.84 in Calm     53 % 0.00 in
21:57 84.4 °F 64.9 °F 29.84 in Calm     52 % 0.00 in
22:02 84.0 °F 65.6 °F 29.84 in Calm     54 % 0.00 in
22:07 83.6 °F 65.7 °F 29.84 in Calm     55 % 0.00 in
22:12 83.1 °F 65.8 °F 29.84 in Calm     56 % 0.00 in
22:17 82.3 °F 65.5 °F 29.84 in Calm     57 % 0.00 in
22:22 81.8 °F 65.6 °F 29.84 in Calm     58 % 0.00 in
22:27 81.4 °F 66.2 °F 29.85 in Calm     60 % 0.00 in
22:32 80.9 °F 65.7 °F 29.85 in Calm     60 % 0.00 in
22:37 80.5 °F 66.3 °F 29.85 in Calm     62 % 0.00 in
22:41 80.0 °F 65.8 °F 29.85 in Calm     62 % 0.00 in
22:46 79.9 °F 66.2 °F 29.85 in Calm     63 % 0.00 in
22:51 79.8 °F 66.1 °F 29.85 in Calm     63 % 0.00 in
22:57 79.7 °F 66.0 °F 29.85 in Calm     63 % 0.00 in
23:02 79.6 °F 65.9 °F 29.85 in Calm     63 % 0.00 in
23:07 79.6 °F 65.9 °F 29.86 in Calm     63 % 0.00 in
23:12 79.4 °F 66.6 °F 29.86 in Calm     65 % 0.00 in
23:17 78.8 °F 66.9 °F 29.86 in Calm     67 % 0.00 in
23:22 78.4 °F 66.5 °F 29.86 in Calm     67 % 0.00 in
23:27 78.0 °F 66.6 °F 29.86 in Calm     68 % 0.00 in
23:32 77.7 °F 66.7 °F 29.86 in Calm     69 % 0.00 in
23:37 77.4 °F 66.8 °F 29.86 in Calm     70 % 0.00 in
23:42 77.2 °F 66.7 °F 29.86 in Calm     70 % 0.00 in
23:47 77.1 °F 66.6 °F 29.86 in Calm     70 % 0.00 in
23:52 77.2 °F 66.7 °F 29.86 in Calm     70 % 0.00 in
23:57 77.4 °F 66.4 °F 29.86 in Calm     69 % 0.00 in
23:58 77.4 °F 66.4 °F 29.86 in Calm     69 % 0.00 in
Park Place, Exeter, Tulare County, California, USA
Compliments of Weather Underground - 2.75 mb